This is the latest recevied weather packets stored in our database for station/object IW1QLH-13. If no packets are shown the sender has not sent any weather packets the latest 10 day(s).
| Time | Temp. | Humidity | Pressure | Rain* | Wind** | Luminosity | Snow |
|---|---|---|---|---|---|---|---|
| 1777516910 | 18.89° C | 55% | 1008.9 hPa | - | - | 14 W/m² | - |
| 1777516274 | 17.78° C | 51% | 1008.8 hPa | - | - | 14 W/m² | - |
| 1777515645 | 17.78° C | 50% | 1008.7 hPa | - | - | 14 W/m² | - |
| 1777515017 | 17.78° C | 54% | 1008.6 hPa | - | - | - | - |
| 1777514389 | 17.78° C | 54% | 1008.5 hPa | - | - | 14 W/m² | - |
| 1777513760 | 17.78° C | 45% | 1008.3 hPa | - | - | 14 W/m² | - |
| 1777513128 | 17.78° C | 44% | 1008.2 hPa | - | - | 14 W/m² | - |
| 1777511866 | 17.78° C | 47% | 1008.2 hPa | - | - | 14 W/m² | - |
| 1777509979 | 18.89° C | 51% | 1008.4 hPa | - | - | 14 W/m² | - |
| 1777509347 | 18.89° C | 50% | 1008.3 hPa | - | - | - | - |
| 1777507459 | 18.89° C | 56% | 1008.2 hPa | - | - | - | - |
| 1777506831 | 17.78° C | 62% | 1008.3 hPa | - | - | 14 W/m² | - |
| 1777506202 | 16.67° C | 67% | 1008.2 hPa | - | - | 14 W/m² | - |
| 1777502361 | 15.56° C | 71% | 1008.4 hPa | - | - | 14 W/m² | - |
| 1777501732 | 15.56° C | 72% | 1008.4 hPa | - | - | - | - |
| 1777501103 | 15.56° C | 71% | 1008.3 hPa | - | - | 14 W/m² | - |
| 1777500474 | 15.56° C | 70% | 1008.1 hPa | - | - | - | - |
| 1777499845 | 15.56° C | 69% | 1008.1 hPa | - | - | 14 W/m² | - |
| 1777496635 | 15.56° C | 64% | 1007.9 hPa | - | - | 14 W/m² | - |
| 1777495376 | 16.67° C | 59% | 1007.8 hPa | - | - | 14 W/m² | - |
| 1777494747 | 16.67° C | 54% | 1007.9 hPa | - | - | - | - |
| 1777494118 | 17.78° C | 51% | 1007.6 hPa | - | - | - | - |
| 1777493486 | 17.78° C | 50% | 1007.4 hPa | - | - | 14 W/m² | - |
| 1777490967 | 17.78° C | 52% | 1007.1 hPa | - | - | - | - |
| 1777490337 | 18.89° C | 51% | 1006.9 hPa | - | - | - | - |
* Rain since midnight (hover to see other rain measurements)
** Current wind speed in m/s (hover to see current wind gust speed)